sensor_id;sensor_type;location;lat;lon;timestamp;pressure;altitude;pressure_sealevel;temperature;humidity
69689;BME280;56932;38.402;-96.176;2022-10-17T00:01:36;98075.99;;;21.54;27.84
69689;BME280;56932;38.402;-96.176;2022-10-17T00:04:02;98077.64;;;21.30;28.06
69689;BME280;56932;38.402;-96.176;2022-10-17T00:06:27;98079.13;;;20.48;29.14
69689;BME280;56932;38.402;-96.176;2022-10-17T00:08:53;98080.52;;;20.62;29.09
69689;BME280;56932;38.402;-96.176;2022-10-17T00:11:21;98085.69;;;21.64;27.78
69689;BME280;56932;38.402;-96.176;2022-10-17T00:13:44;98085.75;;;21.75;27.39
69689;BME280;56932;38.402;-96.176;2022-10-17T00:16:10;98076.95;;;20.14;28.78
69689;BME280;56932;38.402;-96.176;2022-10-17T00:18:35;98078.77;;;21.02;28.18
69689;BME280;56932;38.402;-96.176;2022-10-17T00:21:01;98079.72;;;21.27;28.20
69689;BME280;56932;38.402;-96.176;2022-10-17T00:23:26;98076.44;;;20.62;28.62
69689;BME280;56932;38.402;-96.176;2022-10-17T00:25:58;98073.48;;;21.00;28.70
69689;BME280;56932;38.402;-96.176;2022-10-17T00:28:17;98080.91;;;21.17;28.04
69689;BME280;56932;38.402;-96.176;2022-10-17T00:30:43;98086.58;;;21.19;28.27
69689;BME280;56932;38.402;-96.176;2022-10-17T00:33:08;98089.68;;;21.32;28.36
69689;BME280;56932;38.402;-96.176;2022-10-17T00:35:34;98089.58;;;20.74;29.00
69689;BME280;56932;38.402;-96.176;2022-10-17T00:37:59;98095.47;;;21.64;28.05
69689;BME280;56932;38.402;-96.176;2022-10-17T00:40:25;98095.32;;;20.25;29.27
69689;BME280;56932;38.402;-96.176;2022-10-17T00:42:50;98097.43;;;20.29;29.38
69689;BME280;56932;38.402;-96.176;2022-10-17T00:45:20;98101.16;;;21.21;28.07
69689;BME280;56932;38.402;-96.176;2022-10-17T00:47:42;98097.31;;;20.84;28.93
69689;BME280;56932;38.402;-96.176;2022-10-17T00:50:07;98096.61;;;20.74;28.58
69689;BME280;56932;38.402;-96.176;2022-10-17T00:52:32;98100.75;;;21.05;28.20
69689;BME280;56932;38.402;-96.176;2022-10-17T00:55:02;98100.38;;;21.07;28.39
69689;BME280;56932;38.402;-96.176;2022-10-17T00:57:24;98103.25;;;21.60;28.10
69689;BME280;56932;38.402;-96.176;2022-10-17T00:59:52;98106.01;;;21.42;28.28
69689;BME280;56932;38.402;-96.176;2022-10-17T01:02:17;98108.21;;;20.31;29.25
69689;BME280;56932;38.402;-96.176;2022-10-17T01:04:42;98107.31;;;21.18;28.57
69689;BME280;56932;38.402;-96.176;2022-10-17T01:07:06;98108.53;;;21.50;28.22
69689;BME280;56932;38.402;-96.176;2022-10-17T01:09:31;98105.86;;;21.80;27.90
69689;BME280;56932;38.402;-96.176;2022-10-17T01:12:03;98108.56;;;21.50;28.17
69689;BME280;56932;38.402;-96.176;2022-10-17T01:14:27;98111.93;;;21.39;28.10
69689;BME280;56932;38.402;-96.176;2022-10-17T01:16:54;98108.98;;;21.48;28.48
69689;BME280;56932;38.402;-96.176;2022-10-17T01:21:46;98118.69;;;21.34;28.11
69689;BME280;56932;38.402;-96.176;2022-10-17T01:26:41;98117.80;;;21.06;28.59
69689;BME280;56932;38.402;-96.176;2022-10-17T01:29:11;98123.48;;;20.39;29.04
69689;BME280;56932;38.402;-96.176;2022-10-17T01:31:22;98122.21;;;19.82;29.40
69689;BME280;56932;38.402;-96.176;2022-10-17T01:33:53;98126.26;;;20.80;29.17
69689;BME280;56932;38.402;-96.176;2022-10-17T01:36:20;98127.68;;;20.17;28.99
69689;BME280;56932;38.402;-96.176;2022-10-17T01:38:44;98125.87;;;21.27;28.38
69689;BME280;56932;38.402;-96.176;2022-10-17T01:41:06;98130.89;;;21.19;28.18
69689;BME280;56932;38.402;-96.176;2022-10-17T01:43:33;98132.01;;;20.63;28.56
69689;BME280;56932;38.402;-96.176;2022-10-17T01:45:57;98135.55;;;20.69;28.73
69689;BME280;56932;38.402;-96.176;2022-10-17T01:48:22;98137.17;;;20.78;28.48
69689;BME280;56932;38.402;-96.176;2022-10-17T01:50:47;98137.79;;;21.08;28.20
69689;BME280;56932;38.402;-96.176;2022-10-17T01:53:15;98138.70;;;20.43;28.34
69689;BME280;56932;38.402;-96.176;2022-10-17T01:55:38;98144.31;;;20.88;28.94
69689;BME280;56932;38.402;-96.176;2022-10-17T01:58:04;98146.51;;;20.46;29.18
69689;BME280;56932;38.402;-96.176;2022-10-17T02:00:27;98151.75;;;21.04;28.80
69689;BME280;56932;38.402;-96.176;2022-10-17T02:02:54;98152.90;;;20.73;29.17
69689;BME280;56932;38.402;-96.176;2022-10-17T02:05:19;98155.66;;;20.58;28.59
69689;BME280;56932;38.402;-96.176;2022-10-17T02:07:42;98154.62;;;21.27;28.16
69689;BME280;56932;38.402;-96.176;2022-10-17T02:10:12;98157.61;;;20.40;29.01
69689;BME280;56932;38.402;-96.176;2022-10-17T02:12:41;98157.97;;;20.46;29.17
69689;BME280;56932;38.402;-96.176;2022-10-17T02:15:12;98158.70;;;20.65;29.54
69689;BME280;56932;38.402;-96.176;2022-10-17T02:17:34;98159.90;;;20.21;29.70
69689;BME280;56932;38.402;-96.176;2022-10-17T02:19:59;98163.28;;;21.09;28.63
69689;BME280;56932;38.402;-96.176;2022-10-17T02:22:22;98166.31;;;21.35;28.56
69689;BME280;56932;38.402;-96.176;2022-10-17T02:24:49;98171.65;;;20.14;29.64
69689;BME280;56932;38.402;-96.176;2022-10-17T02:27:12;98170.48;;;20.07;29.47
69689;BME280;56932;38.402;-96.176;2022-10-17T02:29:35;98170.44;;;20.14;29.66
69689;BME280;56932;38.402;-96.176;2022-10-17T02:32:01;98166.00;;;20.91;29.04
69689;BME280;56932;38.402;-96.176;2022-10-17T02:34:26;98169.07;;;21.22;28.47
69689;BME280;56932;38.402;-96.176;2022-10-17T02:36:51;98175.03;;;20.50;29.34
69689;BME280;56932;38.402;-96.176;2022-10-17T02:39:15;98174.43;;;20.44;29.28
69689;BME280;56932;38.402;-96.176;2022-10-17T02:41:39;98183.06;;;21.10;28.81
69689;BME280;56932;38.402;-96.176;2022-10-17T02:44:06;98179.06;;;20.69;29.20
69689;BME280;56932;38.402;-96.176;2022-10-17T02:46:31;98180.63;;;20.39;29.30
69689;BME280;56932;38.402;-96.176;2022-10-17T02:48:59;98183.10;;;19.96;29.68
69689;BME280;56932;38.402;-96.176;2022-10-17T02:51:26;98189.78;;;20.41;29.00
69689;BME280;56932;38.402;-96.176;2022-10-17T02:53:52;98188.89;;;21.66;28.15
69689;BME280;56932;38.402;-96.176;2022-10-17T02:56:15;98189.60;;;20.11;29.31
69689;BME280;56932;38.402;-96.176;2022-10-17T02:58:38;98199.77;;;20.96;28.72
69689;BME280;56932;38.402;-96.176;2022-10-17T03:01:03;98198.92;;;20.04;29.95
69689;BME280;56932;38.402;-96.176;2022-10-17T03:03:30;98203.17;;;20.43;29.32
69689;BME280;56932;38.402;-96.176;2022-10-17T03:05:54;98206.07;;;21.02;28.89
69689;BME280;56932;38.402;-96.176;2022-10-17T03:08:19;98204.52;;;20.02;29.97
69689;BME280;56932;38.402;-96.176;2022-10-17T03:10:44;98205.95;;;20.28;29.71
69689;BME280;56932;38.402;-96.176;2022-10-17T03:13:10;98210.38;;;19.63;29.90
69689;BME280;56932;38.402;-96.176;2022-10-17T03:15:36;98210.12;;;20.66;29.24
69689;BME280;56932;38.402;-96.176;2022-10-17T03:18:01;98217.78;;;20.15;29.89
69689;BME280;56932;38.402;-96.176;2022-10-17T03:20:26;98219.36;;;20.14;29.40
69689;BME280;56932;38.402;-96.176;2022-10-17T03:22:52;98222.58;;;20.21;29.47
69689;BME280;56932;38.402;-96.176;2022-10-17T03:25:17;98229.61;;;20.62;28.84
69689;BME280;56932;38.402;-96.176;2022-10-17T03:27:43;98233.26;;;20.10;29.84
69689;BME280;56932;38.402;-96.176;2022-10-17T03:30:09;98239.59;;;20.03;29.24
69689;BME280;56932;38.402;-96.176;2022-10-17T03:32:34;98241.29;;;20.85;29.17
69689;BME280;56932;38.402;-96.176;2022-10-17T03:34:59;98243.79;;;20.61;29.35
69689;BME280;56932;38.402;-96.176;2022-10-17T03:37:25;98246.05;;;19.96;30.15
69689;BME280;56932;38.402;-96.176;2022-10-17T03:39:50;98246.52;;;19.68;30.23
69689;BME280;56932;38.402;-96.176;2022-10-17T03:42:16;98252.63;;;20.48;29.27
69689;BME280;56932;38.402;-96.176;2022-10-17T03:44:41;98255.12;;;20.81;28.92
69689;BME280;56932;38.402;-96.176;2022-10-17T03:47:07;98260.13;;;20.23;29.31
69689;BME280;56932;38.402;-96.176;2022-10-17T03:49:32;98262.52;;;19.59;30.15
69689;BME280;56932;38.402;-96.176;2022-10-17T03:51:58;98263.02;;;20.72;29.19
69689;BME280;56932;38.402;-96.176;2022-10-17T03:54:23;98265.52;;;20.85;28.82
69689;BME280;56932;38.402;-96.176;2022-10-17T03:56:49;98268.48;;;20.57;29.35
69689;BME280;56932;38.402;-96.176;2022-10-17T03:59:15;98269.45;;;20.38;29.09
69689;BME280;56932;38.402;-96.176;2022-10-17T04:01:40;98274.64;;;20.45;29.13
69689;BME280;56932;38.402;-96.176;2022-10-17T04:04:06;98273.34;;;20.85;28.48
69689;BME280;56932;38.402;-96.176;2022-10-17T04:06:31;98271.53;;;21.27;28.51
69689;BME280;56932;38.402;-96.176;2022-10-17T04:08:56;98274.27;;;21.04;28.51
69689;BME280;56932;38.402;-96.176;2022-10-17T04:11:22;98275.77;;;20.68;29.12
69689;BME280;56932;38.402;-96.176;2022-10-17T04:13:51;98274.68;;;20.08;29.76
69689;BME280;56932;38.402;-96.176;2022-10-17T04:16:14;98273.95;;;19.68;30.11
69689;BME280;56932;38.402;-96.176;2022-10-17T04:18:38;98275.96;;;19.92;29.62
69689;BME280;56932;38.402;-96.176;2022-10-17T04:21:04;98274.94;;;20.93;28.77
69689;BME280;56932;38.402;-96.176;2022-10-17T04:23:29;98277.29;;;20.35;29.32
69689;BME280;56932;38.402;-96.176;2022-10-17T04:25:55;98282.13;;;19.87;30.43
69689;BME280;56932;38.402;-96.176;2022-10-17T04:28:20;98283.62;;;20.64;29.05
69689;BME280;56932;38.402;-96.176;2022-10-17T04:30:45;98287.56;;;20.10;29.60
69689;BME280;56932;38.402;-96.176;2022-10-17T04:33:11;98286.96;;;19.93;29.28
69689;BME280;56932;38.402;-96.176;2022-10-17T04:35:36;98290.15;;;20.45;29.21
69689;BME280;56932;38.402;-96.176;2022-10-17T04:38:02;98290.69;;;19.52;30.14
69689;BME280;56932;38.402;-96.176;2022-10-17T04:40:27;98292.62;;;19.92;29.53
69689;BME280;56932;38.402;-96.176;2022-10-17T04:42:53;98291.67;;;20.55;29.06
69689;BME280;56932;38.402;-96.176;2022-10-17T04:45:18;98290.74;;;19.95;29.17
69689;BME280;56932;38.402;-96.176;2022-10-17T04:47:43;98293.67;;;20.13;29.41
69689;BME280;56932;38.402;-96.176;2022-10-17T04:50:09;98294.09;;;19.19;29.93
69689;BME280;56932;38.402;-96.176;2022-10-17T04:52:35;98295.39;;;20.05;29.83
69689;BME280;56932;38.402;-96.176;2022-10-17T04:55:00;98297.50;;;20.10;29.41
69689;BME280;56932;38.402;-96.176;2022-10-17T04:57:25;98297.82;;;20.06;29.48
69689;BME280;56932;38.402;-96.176;2022-10-17T04:59:51;98298.74;;;19.78;29.77
69689;BME280;56932;38.402;-96.176;2022-10-17T05:02:16;98298.52;;;20.46;29.04
69689;BME280;56932;38.402;-96.176;2022-10-17T05:04:42;98300.47;;;20.35;29.09
69689;BME280;56932;38.402;-96.176;2022-10-17T05:07:08;98306.00;;;18.96;30.25
69689;BME280;56932;38.402;-96.176;2022-10-17T05:09:32;98304.40;;;19.60;29.82
69689;BME280;56932;38.402;-96.176;2022-10-17T05:11:58;98302.61;;;20.43;28.98
69689;BME280;56932;38.402;-96.176;2022-10-17T05:14:23;98304.45;;;19.58;30.21
69689;BME280;56932;38.402;-96.176;2022-10-17T05:16:49;98301.26;;;20.27;29.45
69689;BME280;56932;38.402;-96.176;2022-10-17T05:19:15;98303.93;;;19.93;29.50
69689;BME280;56932;38.402;-96.176;2022-10-17T05:21:40;98309.56;;;20.10;29.31
69689;BME280;56932;38.402;-96.176;2022-10-17T05:24:08;98310.21;;;19.97;29.43
69689;BME280;56932;38.402;-96.176;2022-10-17T05:26:32;98309.59;;;19.85;29.49
69689;BME280;56932;38.402;-96.176;2022-10-17T05:28:59;98305.07;;;20.38;28.89
69689;BME280;56932;38.402;-96.176;2022-10-17T05:31:23;98306.31;;;20.35;28.93
69689;BME280;56932;38.402;-96.176;2022-10-17T05:33:48;98309.88;;;19.49;29.80
69689;BME280;56932;38.402;-96.176;2022-10-17T05:36:14;98307.35;;;20.03;28.78
69689;BME280;56932;38.402;-96.176;2022-10-17T05:38:39;98311.20;;;20.10;29.11
69689;BME280;56932;38.402;-96.176;2022-10-17T05:41:05;98312.81;;;20.26;28.92
69689;BME280;56932;38.402;-96.176;2022-10-17T05:43:31;98314.27;;;19.52;29.47
69689;BME280;56932;38.402;-96.176;2022-10-17T05:45:56;98313.44;;;19.10;30.67
69689;BME280;56932;38.402;-96.176;2022-10-17T05:48:22;98311.26;;;20.32;28.86
69689;BME280;56932;38.402;-96.176;2022-10-17T05:50:47;98311.82;;;20.39;28.74
69689;BME280;56932;38.402;-96.176;2022-10-17T05:53:12;98314.83;;;19.75;29.62
69689;BME280;56932;38.402;-96.176;2022-10-17T05:55:38;98313.51;;;20.01;29.15
69689;BME280;56932;38.402;-96.176;2022-10-17T05:58:03;98313.84;;;19.86;29.56
69689;BME280;56932;38.402;-96.176;2022-10-17T06:00:29;98319.45;;;18.68;30.42
69689;BME280;56932;38.402;-96.176;2022-10-17T06:02:54;98317.45;;;20.35;28.70
69689;BME280;56932;38.402;-96.176;2022-10-17T06:05:21;98318.19;;;20.31;29.04
69689;BME280;56932;38.402;-96.176;2022-10-17T06:07:45;98321.66;;;19.96;29.33
69689;BME280;56932;38.402;-96.176;2022-10-17T06:10:11;98324.17;;;20.19;29.08
69689;BME280;56932;38.402;-96.176;2022-10-17T06:12:36;98324.15;;;20.69;28.57
69689;BME280;56932;38.402;-96.176;2022-10-17T06:15:02;98322.98;;;20.08;28.84
69689;BME280;56932;38.402;-96.176;2022-10-17T06:17:27;98327.20;;;19.49;29.53
69689;BME280;56932;38.402;-96.176;2022-10-17T06:19:53;98330.56;;;19.72;29.49
69689;BME280;56932;38.402;-96.176;2022-10-17T06:22:19;98326.84;;;19.81;29.11
69689;BME280;56932;38.402;-96.176;2022-10-17T06:24:44;98326.77;;;20.01;29.13
69689;BME280;56932;38.402;-96.176;2022-10-17T06:27:10;98328.32;;;18.90;29.73
69689;BME280;56932;38.402;-96.176;2022-10-17T06:29:35;98329.15;;;19.72;29.15
69689;BME280;56932;38.402;-96.176;2022-10-17T06:32:01;98331.60;;;19.79;29.25
69689;BME280;56932;38.402;-96.176;2022-10-17T06:34:26;98334.30;;;18.61;30.89
69689;BME280;56932;38.402;-96.176;2022-10-17T06:36:52;98333.99;;;19.17;29.99
69689;BME280;56932;38.402;-96.176;2022-10-17T06:39:17;98332.36;;;19.62;29.26
69689;BME280;56932;38.402;-96.176;2022-10-17T06:41:43;98335.07;;;19.24;30.08
69689;BME280;56932;38.402;-96.176;2022-10-17T06:44:09;98334.95;;;18.91;29.52
69689;BME280;56932;38.402;-96.176;2022-10-17T06:46:34;98334.43;;;19.12;30.16
69689;BME280;56932;38.402;-96.176;2022-10-17T06:48:59;98333.18;;;19.58;29.75
69689;BME280;56932;38.402;-96.176;2022-10-17T06:51:25;98336.39;;;19.33;29.74
69689;BME280;56932;38.402;-96.176;2022-10-17T06:53:50;98334.34;;;18.97;30.00
69689;BME280;56932;38.402;-96.176;2022-10-17T06:56:16;98335.91;;;18.90;29.87
69689;BME280;56932;38.402;-96.176;2022-10-17T06:58:41;98337.08;;;19.29;29.83
69689;BME280;56932;38.402;-96.176;2022-10-17T07:01:10;98332.32;;;19.21;29.21
69689;BME280;56932;38.402;-96.176;2022-10-17T07:03:33;98326.96;;;20.22;28.87
69689;BME280;56932;38.402;-96.176;2022-10-17T07:05:58;98330.05;;;19.56;29.51
69689;BME280;56932;38.402;-96.176;2022-10-17T07:08:24;98333.17;;;18.69;30.34
69689;BME280;56932;38.402;-96.176;2022-10-17T07:10:50;98333.28;;;19.59;29.24
69689;BME280;56932;38.402;-96.176;2022-10-17T07:13:15;98335.88;;;18.42;29.94
69689;BME280;56932;38.402;-96.176;2022-10-17T07:15:40;98336.40;;;19.62;29.00
69689;BME280;56932;38.402;-96.176;2022-10-17T07:18:06;98335.08;;;19.59;28.94
69689;BME280;56932;38.402;-96.176;2022-10-17T07:20:31;98338.83;;;19.24;29.53
69689;BME280;56932;38.402;-96.176;2022-10-17T07:22:57;98337.01;;;20.08;28.44
69689;BME280;56932;38.402;-96.176;2022-10-17T07:25:22;98343.77;;;19.13;29.27
69689;BME280;56932;38.402;-96.176;2022-10-17T07:27:48;98340.63;;;19.71;28.99
69689;BME280;56932;38.402;-96.176;2022-10-17T07:30:13;98341.60;;;19.16;28.80
69689;BME280;56932;38.402;-96.176;2022-10-17T07:32:39;98336.51;;;20.40;28.46
69689;BME280;56932;38.402;-96.176;2022-10-17T07:35:05;98340.72;;;19.87;28.70
69689;BME280;56932;38.402;-96.176;2022-10-17T07:37:30;98341.71;;;19.89;28.71
69689;BME280;56932;38.402;-96.176;2022-10-17T07:39:55;98339.09;;;18.80;29.47
69689;BME280;56932;38.402;-96.176;2022-10-17T07:42:21;98340.88;;;17.66;30.78
69689;BME280;56932;38.402;-96.176;2022-10-17T07:44:46;98344.46;;;19.15;29.72
69689;BME280;56932;38.402;-96.176;2022-10-17T07:47:12;98347.13;;;18.82;29.47
69689;BME280;56932;38.402;-96.176;2022-10-17T07:49:37;98345.39;;;19.18;29.59
69689;BME280;56932;38.402;-96.176;2022-10-17T07:52:03;98346.27;;;20.15;28.67
69689;BME280;56932;38.402;-96.176;2022-10-17T07:54:29;98349.56;;;19.23;29.30
69689;BME280;56932;38.402;-96.176;2022-10-17T07:56:54;98347.17;;;19.30;29.15
69689;BME280;56932;38.402;-96.176;2022-10-17T07:59:20;98344.55;;;19.61;28.55
69689;BME280;56932;38.402;-96.176;2022-10-17T08:01:45;98345.20;;;19.23;28.98
69689;BME280;56932;38.402;-96.176;2022-10-17T08:04:11;98343.71;;;18.52;29.24
69689;BME280;56932;38.402;-96.176;2022-10-17T08:06:36;98343.02;;;19.65;28.46
69689;BME280;56932;38.402;-96.176;2022-10-17T08:09:03;98344.10;;;19.54;28.53
69689;BME280;56932;38.402;-96.176;2022-10-17T08:11:27;98347.88;;;19.79;28.80
69689;BME280;56932;38.402;-96.176;2022-10-17T08:13:53;98347.59;;;18.98;29.27
69689;BME280;56932;38.402;-96.176;2022-10-17T08:16:18;98350.28;;;18.96;29.04
69689;BME280;56932;38.402;-96.176;2022-10-17T08:18:44;98345.09;;;19.91;28.51
69689;BME280;56932;38.402;-96.176;2022-10-17T08:21:11;98348.19;;;19.11;28.83
69689;BME280;56932;38.402;-96.176;2022-10-17T08:23:36;98343.75;;;19.56;28.73
69689;BME280;56932;38.402;-96.176;2022-10-17T08:26:02;98343.95;;;19.69;28.73
69689;BME280;56932;38.402;-96.176;2022-10-17T08:28:26;98342.30;;;19.40;28.72
69689;BME280;56932;38.402;-96.176;2022-10-17T08:30:51;98342.92;;;18.80;29.38
69689;BME280;56932;38.402;-96.176;2022-10-17T08:33:17;98343.79;;;18.69;29.23
69689;BME280;56932;38.402;-96.176;2022-10-17T08:35:42;98346.56;;;18.47;29.88
69689;BME280;56932;38.402;-96.176;2022-10-17T08:38:09;98350.35;;;19.04;28.82
69689;BME280;56932;38.402;-96.176;2022-10-17T08:40:34;98352.57;;;19.23;28.88
69689;BME280;56932;38.402;-96.176;2022-10-17T08:43:10;98353.99;;;19.56;28.78
69689;BME280;56932;38.402;-96.176;2022-10-17T08:45:31;98350.35;;;19.52;28.59
69689;BME280;56932;38.402;-96.176;2022-10-17T08:47:53;98350.86;;;19.74;28.51
69689;BME280;56932;38.402;-96.176;2022-10-17T08:50:29;98343.49;;;18.27;29.51
69689;BME280;56932;38.402;-96.176;2022-10-17T08:52:44;98349.45;;;19.56;28.48
69689;BME280;56932;38.402;-96.176;2022-10-17T08:55:14;98347.18;;;18.70;29.30
69689;BME280;56932;38.402;-96.176;2022-10-17T08:57:32;98346.50;;;19.69;28.36
69689;BME280;56932;38.402;-96.176;2022-10-17T08:59:58;98348.79;;;19.57;28.62
69689;BME280;56932;38.402;-96.176;2022-10-17T09:02:35;98348.23;;;19.50;28.52
69689;BME280;56932;38.402;-96.176;2022-10-17T09:05:01;98347.96;;;19.91;28.23
69689;BME280;56932;38.402;-96.176;2022-10-17T09:07:20;98349.56;;;19.19;28.20
69689;BME280;56932;38.402;-96.176;2022-10-17T09:09:49;98349.03;;;19.28;28.68
69689;BME280;56932;38.402;-96.176;2022-10-17T09:12:13;98352.39;;;18.92;28.99
69689;BME280;56932;38.402;-96.176;2022-10-17T09:14:43;98355.91;;;18.76;29.18
69689;BME280;56932;38.402;-96.176;2022-10-17T09:17:07;98358.02;;;19.73;28.38
69689;BME280;56932;38.402;-96.176;2022-10-17T09:19:25;98357.79;;;19.11;28.56
69689;BME280;56932;38.402;-96.176;2022-10-17T09:21:52;98352.59;;;19.13;29.04
69689;BME280;56932;38.402;-96.176;2022-10-17T09:24:18;98354.74;;;18.70;28.69
69689;BME280;56932;38.402;-96.176;2022-10-17T09:26:39;98354.68;;;18.30;29.88
69689;BME280;56932;38.402;-96.176;2022-10-17T09:29:14;98358.95;;;19.40;28.71
69689;BME280;56932;38.402;-96.176;2022-10-17T09:31:34;98362.55;;;19.27;28.86
69689;BME280;56932;38.402;-96.176;2022-10-17T09:33:56;98362.98;;;17.93;30.17
69689;BME280;56932;38.402;-96.176;2022-10-17T09:36:23;98367.36;;;18.51;29.61
69689;BME280;56932;38.402;-96.176;2022-10-17T09:38:49;98370.53;;;19.13;28.69
69689;BME280;56932;38.402;-96.176;2022-10-17T09:41:17;98371.70;;;18.68;28.10
69689;BME280;56932;38.402;-96.176;2022-10-17T09:43:38;98371.64;;;19.76;28.18
69689;BME280;56932;38.402;-96.176;2022-10-17T09:46:07;98372.61;;;19.45;28.16
69689;BME280;56932;38.402;-96.176;2022-10-17T09:48:33;98374.15;;;19.55;28.32
69689;BME280;56932;38.402;-96.176;2022-10-17T09:50:55;98375.09;;;18.63;29.30
69689;BME280;56932;38.402;-96.176;2022-10-17T09:53:24;98377.64;;;19.19;28.70
69689;BME280;56932;38.402;-96.176;2022-10-17T09:55:47;98379.40;;;18.88;28.46
69689;BME280;56932;38.402;-96.176;2022-10-17T09:58:11;98382.54;;;19.18;28.12
69689;BME280;56932;38.402;-96.176;2022-10-17T10:00:38;98384.60;;;19.62;28.13
69689;BME280;56932;38.402;-96.176;2022-10-17T10:03:08;98385.40;;;18.63;29.11
69689;BME280;56932;38.402;-96.176;2022-10-17T10:05:27;98391.42;;;19.24;28.53
69689;BME280;56932;38.402;-96.176;2022-10-17T10:08:00;98394.59;;;19.33;28.17
69689;BME280;56932;38.402;-96.176;2022-10-17T10:10:24;98394.90;;;18.21;28.99
69689;BME280;56932;38.402;-96.176;2022-10-17T10:17:38;98399.90;;;19.23;28.40
69689;BME280;56932;38.402;-96.176;2022-10-17T10:20:02;98407.20;;;19.84;27.85
69689;BME280;56932;38.402;-96.176;2022-10-17T10:22:26;98405.22;;;18.89;28.38
69689;BME280;56932;38.402;-96.176;2022-10-17T10:27:18;98404.43;;;18.28;29.05
69689;BME280;56932;38.402;-96.176;2022-10-17T10:29:48;98407.95;;;19.02;28.67
69689;BME280;56932;38.402;-96.176;2022-10-17T10:32:11;98407.35;;;18.72;28.48
69689;BME280;56932;38.402;-96.176;2022-10-17T10:34:34;98409.89;;;19.41;28.20
69689;BME280;56932;38.402;-96.176;2022-10-17T10:37:02;98407.20;;;19.15;28.51
69689;BME280;56932;38.402;-96.176;2022-10-17T10:39:32;98409.91;;;19.18;28.47
69689;BME280;56932;38.402;-96.176;2022-10-17T10:41:50;98413.56;;;18.76;29.09
69689;BME280;56932;38.402;-96.176;2022-10-17T10:44:16;98416.13;;;18.02;29.60
69689;BME280;56932;38.402;-96.176;2022-10-17T10:46:41;98420.61;;;19.22;28.39
69689;BME280;56932;38.402;-96.176;2022-10-17T10:51:36;98423.62;;;19.25;28.31
69689;BME280;56932;38.402;-96.176;2022-10-17T10:54:02;98426.68;;;18.80;28.70
69689;BME280;56932;38.402;-96.176;2022-10-17T10:56:28;98429.76;;;18.74;28.83
69689;BME280;56932;38.402;-96.176;2022-10-17T10:58:53;98430.51;;;18.85;28.64
69689;BME280;56932;38.402;-96.176;2022-10-17T11:01:21;98429.94;;;18.20;28.80
69689;BME280;56932;38.402;-96.176;2022-10-17T11:03:47;98428.67;;;19.51;28.26
69689;BME280;56932;38.402;-96.176;2022-10-17T11:06:11;98426.79;;;18.50;28.98
69689;BME280;56932;38.402;-96.176;2022-10-17T11:08:35;98428.33;;;17.61;29.46
69689;BME280;56932;38.402;-96.176;2022-10-17T11:11:05;98426.97;;;19.08;28.39
69689;BME280;56932;38.402;-96.176;2022-10-17T11:13:25;98427.31;;;18.35;28.60
69689;BME280;56932;38.402;-96.176;2022-10-17T11:15:53;98427.22;;;18.98;28.45
69689;BME280;56932;38.402;-96.176;2022-10-17T11:18:21;98427.20;;;18.14;28.84
69689;BME280;56932;38.402;-96.176;2022-10-17T11:20:43;98424.35;;;18.37;29.42
69689;BME280;56932;38.402;-96.176;2022-10-17T11:23:13;98422.96;;;17.81;29.83
69689;BME280;56932;38.402;-96.176;2022-10-17T11:25:33;98420.67;;;19.07;28.25
69689;BME280;56932;38.402;-96.176;2022-10-17T11:27:55;98420.86;;;18.92;28.57
69689;BME280;56932;38.402;-96.176;2022-10-17T11:30:23;98418.37;;;19.09;28.11
69689;BME280;56932;38.402;-96.176;2022-10-17T11:32:50;98420.70;;;19.08;28.64
69689;BME280;56932;38.402;-96.176;2022-10-17T11:35:20;98421.91;;;17.88;28.87
69689;BME280;56932;38.402;-96.176;2022-10-17T11:37:41;98429.64;;;18.41;28.77
69689;BME280;56932;38.402;-96.176;2022-10-17T11:40:07;98432.08;;;19.03;28.67
69689;BME280;56932;38.402;-96.176;2022-10-17T11:42:32;98430.63;;;18.53;29.16
69689;BME280;56932;38.402;-96.176;2022-10-17T11:44:59;98429.18;;;18.82;28.67
69689;BME280;56932;38.402;-96.176;2022-10-17T11:47:31;98429.05;;;18.04;29.45
69689;BME280;56932;38.402;-96.176;2022-10-17T11:49:49;98431.62;;;18.20;29.20
69689;BME280;56932;38.402;-96.176;2022-10-17T11:52:23;98432.02;;;18.48;28.56
69689;BME280;56932;38.402;-96.176;2022-10-17T11:54:41;98438.77;;;18.94;28.11
69689;BME280;56932;38.402;-96.176;2022-10-17T11:57:18;98433.73;;;19.02;27.95
69689;BME280;56932;38.402;-96.176;2022-10-17T12:01:58;98435.67;;;18.16;28.64
69689;BME280;56932;38.402;-96.176;2022-10-17T12:04:29;98438.70;;;18.10;28.56
69689;BME280;56932;38.402;-96.176;2022-10-17T12:06:58;98441.15;;;17.99;29.14
69689;BME280;56932;38.402;-96.176;2022-10-17T12:09:15;98439.71;;;18.11;28.25
69689;BME280;56932;38.402;-96.176;2022-10-17T12:11:42;98440.17;;;18.72;28.12
69689;BME280;56932;38.402;-96.176;2022-10-17T12:14:01;98442.58;;;19.15;27.89
69689;BME280;56932;38.402;-96.176;2022-10-17T12:16:36;98444.54;;;17.54;29.22
69689;BME280;56932;38.402;-96.176;2022-10-17T12:21:17;98455.57;;;18.31;28.39
69689;BME280;56932;38.402;-96.176;2022-10-17T12:23:50;98465.29;;;18.26;28.44
69689;BME280;56932;38.402;-96.176;2022-10-17T12:26:10;98463.69;;;17.54;29.09
69689;BME280;56932;38.402;-96.176;2022-10-17T12:28:40;98462.61;;;16.88;30.09
69689;BME280;56932;38.402;-96.176;2022-10-17T12:31:02;98466.94;;;18.16;28.76
69689;BME280;56932;38.402;-96.176;2022-10-17T12:33:32;98467.76;;;18.52;28.32
69689;BME280;56932;38.402;-96.176;2022-10-17T12:38:22;98474.17;;;18.23;28.35
69689;BME280;56932;38.402;-96.176;2022-10-17T12:40:47;98473.59;;;17.50;29.46
69689;BME280;56932;38.402;-96.176;2022-10-17T12:47:58;98482.01;;;18.11;28.90
69689;BME280;56932;38.402;-96.176;2022-10-17T12:52:58;98490.19;;;17.34;29.06
69689;BME280;56932;38.402;-96.176;2022-10-17T12:55:16;98495.65;;;17.79;28.61
69689;BME280;56932;38.402;-96.176;2022-10-17T12:57:47;98492.67;;;18.29;28.58
69689;BME280;56932;38.402;-96.176;2022-10-17T13:00:14;98492.46;;;18.52;28.10